Dauntless Aviation
Airports North America United States Pennsylvania
0P0

VALLEY FORGE BICENTENNIAL HELIPORT

NORRISTOWN, PA, USA

Airport Info
Suggest Updated Information for this Airport

Location

Latitude / Longitude: 40°7'16"N / 75°24'21"W
  40°7.2731'N / 75°24.3612'W
  40.1212 / -75.4060
Elevation: 260 ft. (estimated)
Variation: 11W (1985)
From city: 02 miles SW of NORRISTOWN, PA

Operations

Facility use: Open to the public
Sectional chart: NEW YORK
Control tower: no
Boundary ARTCC: NEW YORK
FSS: WILLIAMSPORT [1-800-WX-BRIEF]
NOTAMs facility: IPT (NOTAM-D service available)
Segmented circle: no
Lights: NONE
Landing fee: no

Communications

UNICOM: 123.050
CTAF: 123.050

Nearby radio navigation aids

VOR radial/distance VOR name Freq Var
PTW 131oT/9.3 POTTSTOWN VORTAC 116.50 09W
CKZ 198oT/17.1 PENNRIDGE VOR/DME 108.85 12W
MXE 45oT/17.2 MODENA VORTAC 113.20 09W
PNE 277oT/18.4 NORTH PHILADELPHIA VOR 112.00 10W
ARD 251oT/24.2 YARDLEY VOR/DME 108.20 10W
DQO 19oT/28.2 DUPONT VORTAC 114.00 10W
OOD 351oT/29.5 WOODSTOWN VORTAC 112.80 10W
ETX 155oT/30.4 EAST TEXAS VOR/DME 110.20 09W
FJC 176oT/36.4 ALLENTOWN VORTAC 117.50 10W
GXU 280oT/37.8 MC GUIRE VORTAC 110.60 11W
 
NDB name Hdg/Dist Freq Var ID
AMBLER 267oT/5.6 275 11W ING
WILLOW GROVE 251oT/12.6 388 12W NXX
DOYLESTOWN 225oT/18.3 237 10W DYL
QUAKERTOWN 195oT/18.9 208 12W UKT

Services

Runway Information

Helipad H1

Dimensions: 60 x 60 ft.
Surface: GRASS; SOD,GOOD CONDITION,NO SPECIAL SURFACE TREATMENT
 

Operational Statistics

Annual operations: 80
Local: 80

Additional Remarks

Instrument Procedures

No published instrument procedures available
Topographic chart at:
Satellite photo at:
Airport distance calculator
From:
Weather Reports

METAR

KLOM
6.4nm NE
KLOM 251315Z AUTO 00000KT 10SM CLR 05/01 A3036 RMK AO2 T00490012
KPTW
9.4nm NW
KPTW 251254Z AUTO 15003KT 10SM CLR 03/00 A3036 RMK AO2 SLP279 T00330000
KOQN
11.6nm SW
KOQN 251315Z AUTO 00000KT 10SM CLR 06/00 A3035 RMK AO2
KCKZ
16.7nm N
KCKZ 251315Z AUTO 17004KT 10SM CLR 05/01 A3035 RMK AO2
KPHL
17.2nm SE
KPHL 251254Z 16005KT 10SM FEW210 BKN240 06/02 A3036 RMK AO2 SLP281 T00610022 $
KPNE
18.0nm E
KPNE 251254Z AUTO 00000KT 10SM CLR 04/01 A3037 RMK AO2 SLP286 T00390006

TAF

KPHL
17.2nm SE
KPHL 251139Z 2512/2618 18006KT P6SM BKN210 FM260000 18005KT P6SM BKN050 FM260300 19006KT P6SM OVC025 FM260600 18006KT 5SM -RA OVC025 FM260900 18007KT 2SM RA OVC015 FM261100 19007KT 2SM RA OVC010 WS020/19035KT
KPNE
18.0nm E
KPNE 251139Z 2512/2612 14005KT P6SM SCT250 FM260000 VRB04KT P6SM BKN100 FM260400 17005KT P6SM -RA OVC025 FM260700 17006KT 3SM RA BKN030 FM260900 18006KT 2SM RA OVC015 FM261100 18006KT 2SM RA OVC008 WS020/19035KT
KILG
28.7nm S
KILG 251139Z 2512/2612 19008KT P6SM SCT250 FM252300 17005KT P6SM BKN070 FM260400 18006KT P6SM BKN030 FM260500 17007KT 6SM -RA OVC025 FM260700 18007KT 3SM RA OVC025 FM260900 18008KT 2SM RA OVC008
KTTN
28.7nm NE
KTTN 251139Z 2512/2612 17006KT P6SM SCT250 FM251700 20009KT P6SM BKN150 FM260000 VRB04KT P6SM BKN070 FM260700 17005KT 3SM RA BKN030 FM260900 17005KT 2SM RA OVC015 FM261100 18006KT 2SM RA OVC008 WS020/19035KT
KRDG
29.6nm W
KRDG 251139Z 2512/2612 16006KT P6SM SCT250 FM260000 16005KT P6SM BKN045 FM260300 VRB04KT P6SM VCSH OVC025 FM260400 16005KT 5SM -RA OVC015 FM260600 16006KT 3SM -RA OVC008
KABE
31.8nm NW
KABE 251139Z 2512/2612 16006KT P6SM SCT250 FM251700 19009KT P6SM BKN150 FM260000 VRB03KT P6SM OVC060 FM260300 VRB03KT P6SM VCSH OVC030 FM260500 VRB04KT 2SM -RA OVC008
Safelog

 

Dauntless Aviation

© 2007-2020 Dauntless Aviation, all rights reserved
Information provided via PilotNav comes from a variety of official and unofficial data sources. As errors are possible, do not use PilotNav for primary flight planning purposes. Verify any information that you receive via PilotNav with current and canonical charts and other official documents. The material in this database is subject to database copyrights held by Dauntless Aviation and may not be copied without the express permission of Dauntless Aviation - licenses for use of part of all of this data are available for purchase; enquire via the Dauntless Aviation helpdesk. A number of mechanisms and markers exist in the database to protect against and identify infringement / copyright. Automated queries against this website are strictly prohibited, and all activity is logged and analyzed.